createdAt,value
2022-09-27T00:01:10.532Z,2.10
2022-09-27T00:03:37.406Z,2.05
2022-09-27T00:06:09.768Z,2.55
2022-09-27T00:08:37.179Z,2.50
2022-09-27T00:11:06.447Z,3.90
2022-09-27T00:13:33.480Z,2.83
2022-09-27T00:16:05.045Z,3.25
2022-09-27T00:18:33.137Z,2.83
2022-09-27T00:21:12.533Z,2.85
2022-09-27T00:23:39.809Z,3.25
2022-09-27T00:26:07.568Z,4.57
2022-09-27T00:28:34.506Z,3.05
2022-09-27T00:31:01.430Z,3.08
2022-09-27T00:33:28.310Z,3.60
2022-09-27T00:35:54.973Z,4.03
2022-09-27T00:38:21.656Z,1.50
2022-09-27T00:40:48.486Z,2.20
2022-09-27T00:43:22.860Z,2.90
2022-09-27T00:46:19.739Z,2.15
2022-09-27T00:48:47.236Z,2.22
2022-09-27T00:51:14.714Z,3.05
2022-09-27T00:53:51.551Z,1.73
2022-09-27T00:56:23.824Z,1.55
2022-09-27T00:59:19.401Z,1.55
2022-09-27T01:01:46.456Z,2.63
2022-09-27T01:04:18.219Z,3.70
2022-09-27T01:06:44.824Z,3.42
2022-09-27T01:09:12.515Z,2.08
2022-09-27T01:11:44.988Z,2.70
2022-09-27T01:14:21.926Z,2.45
2022-09-27T01:16:53.503Z,2.05
2022-09-27T01:20:01.736Z,1.35
2022-09-27T01:22:36.499Z,2.65
2022-09-27T01:25:15.441Z,1.67
2022-09-27T01:28:01.034Z,2.00
2022-09-27T01:30:32.909Z,2.08
2022-09-27T01:33:13.935Z,2.88
2022-09-27T01:35:46.783Z,1.67
2022-09-27T01:38:34.869Z,3.10
2022-09-27T01:41:13.885Z,1.73
2022-09-27T01:43:55.580Z,1.50
2022-09-27T01:46:28.794Z,1.23
2022-09-27T01:48:58.970Z,2.25
2022-09-27T01:51:30.812Z,0.98
2022-09-27T01:54:02.875Z,2.05
2022-09-27T01:56:45.619Z,2.60
2022-09-27T01:59:18.175Z,2.38
2022-09-27T02:01:48.277Z,2.10
2022-09-27T02:04:21.844Z,2.20
2022-09-27T02:06:55.067Z,2.15
2022-09-27T02:09:29.186Z,1.75
2022-09-27T02:12:03.511Z,1.80
2022-09-27T02:14:42.477Z,2.20
2022-09-27T02:17:25.219Z,1.85
2022-09-27T02:20:13.027Z,2.05
2022-09-27T02:22:47.903Z,3.58
2022-09-27T02:25:23.499Z,1.85
2022-09-27T02:28:24.232Z,3.28
2022-09-27T02:30:51.332Z,4.10
2022-09-27T02:33:22.541Z,1.42
2022-09-27T02:35:49.424Z,2.42
2022-09-27T02:38:16.114Z,2.03
2022-09-27T02:40:47.578Z,2.25
2022-09-27T02:43:17.531Z,3.72
2022-09-27T02:46:21.403Z,1.80
2022-09-27T02:48:54.178Z,2.83
2022-09-27T02:51:45.388Z,1.73
2022-09-27T02:54:12.078Z,1.95
2022-09-27T02:56:44.412Z,2.92
2022-09-27T02:59:43.251Z,1.60
2022-09-27T03:02:27.934Z,2.35
2022-09-27T03:04:59.296Z,1.52
2022-09-27T03:07:26.811Z,1.95
2022-09-27T03:09:54.567Z,2.10
2022-09-27T03:12:32.503Z,2.80
2022-09-27T03:15:00.335Z,1.67
2022-09-27T03:17:27.319Z,2.55
2022-09-27T03:19:53.971Z,2.30
2022-09-27T03:22:21.611Z,2.55
2022-09-27T03:24:49.197Z,2.30
2022-09-27T03:27:15.791Z,2.83
2022-09-27T03:29:42.372Z,4.35
2022-09-27T03:32:08.975Z,1.88
2022-09-27T03:34:35.535Z,3.85
2022-09-27T03:37:02.288Z,2.05
2022-09-27T03:39:28.996Z,2.72
2022-09-27T03:41:55.628Z,2.13
2022-09-27T03:44:22.206Z,3.17
2022-09-27T03:46:48.923Z,2.70
2022-09-27T03:49:15.759Z,2.88
2022-09-27T03:51:42.533Z,2.42
2022-09-27T03:54:09.878Z,2.50
2022-09-27T03:56:36.580Z,2.25
2022-09-27T03:59:03.618Z,3.17
2022-09-27T04:01:30.484Z,3.20
2022-09-27T04:03:57.124Z,2.67
2022-09-27T04:06:23.883Z,1.88
2022-09-27T04:08:50.645Z,2.17
2022-09-27T04:11:17.485Z,2.80
2022-09-27T04:13:44.470Z,2.75
2022-09-27T04:16:11.247Z,2.30
2022-09-27T04:18:37.935Z,3.28
2022-09-27T04:21:04.651Z,4.85
2022-09-27T04:23:31.271Z,2.47
2022-09-27T04:25:57.963Z,3.42
2022-09-27T04:28:24.614Z,2.92
2022-09-27T04:30:51.291Z,3.50
2022-09-27T04:33:17.963Z,3.63
2022-09-27T04:36:03.112Z,3.83
2022-09-27T04:38:29.740Z,3.65
2022-09-27T04:40:56.719Z,5.85
2022-09-27T04:43:23.605Z,3.78
2022-09-27T04:45:50.241Z,3.55
2022-09-27T04:48:16.844Z,3.75
2022-09-27T04:50:43.395Z,5.85
2022-09-27T04:53:14.888Z,4.05
2022-09-27T04:55:47.505Z,4.32
2022-09-27T04:58:14.164Z,4.25
2022-09-27T05:00:43.023Z,5.75
2022-09-27T05:03:09.648Z,6.45
2022-09-27T05:05:36.340Z,5.50
2022-09-27T05:08:02.964Z,4.53
2022-09-27T05:10:29.509Z,3.67
2022-09-27T05:12:56.236Z,4.07
2022-09-27T05:15:23.079Z,4.72
2022-09-27T05:17:52.349Z,4.57
2022-09-27T05:20:19.419Z,4.03
2022-09-27T05:22:46.319Z,4.03
2022-09-27T05:25:13.170Z,6.13
2022-09-27T05:27:39.975Z,6.68
2022-09-27T05:30:07.956Z,5.65
2022-09-27T05:32:35.393Z,7.90
2022-09-27T05:35:02.381Z,7.88
2022-09-27T05:37:32.062Z,4.18
2022-09-27T05:39:58.632Z,5.05
2022-09-27T05:42:25.316Z,4.60
2022-09-27T05:44:52.237Z,5.30
2022-09-27T05:47:18.842Z,5.97
2022-09-27T05:49:45.428Z,6.05
2022-09-27T05:52:15.129Z,5.57
2022-09-27T05:54:43.523Z,8.30
2022-09-27T05:57:10.226Z,4.78
2022-09-27T05:59:36.816Z,6.75
2022-09-27T06:02:03.666Z,6.35
2022-09-27T06:04:30.383Z,6.13
2022-09-27T06:06:58.889Z,6.28
2022-09-27T06:09:27.296Z,6.60
2022-09-27T06:11:53.929Z,6.93
2022-09-27T06:14:20.819Z,8.52
2022-09-27T06:16:48.050Z,6.57
2022-09-27T06:19:14.976Z,8.18
2022-09-27T06:21:41.683Z,9.95
2022-09-27T06:24:08.391Z,7.05
2022-09-27T06:26:35.072Z,6.78
2022-09-27T06:29:01.619Z,5.55
2022-09-27T06:31:30.269Z,8.27
2022-09-27T06:33:56.968Z,7.55
2022-09-27T06:36:23.596Z,7.60
2022-09-27T06:38:50.163Z,7.03
2022-09-27T06:41:16.998Z,7.95
2022-09-27T06:43:43.609Z,6.05
2022-09-27T06:46:10.296Z,4.35
2022-09-27T06:48:40.303Z,4.88
2022-09-27T06:51:06.983Z,6.13
2022-09-27T06:53:33.549Z,5.07
2022-09-27T06:56:01.158Z,3.25
2022-09-27T06:58:47.850Z,3.55
2022-09-27T07:01:16.983Z,3.22
2022-09-27T07:03:44.337Z,5.97
2022-09-27T07:06:20.657Z,2.03
2022-09-27T07:08:52.073Z,3.47
2022-09-27T07:11:18.985Z,2.85
2022-09-27T07:13:45.767Z,2.45
2022-09-27T07:16:14.252Z,1.75
2022-09-27T07:18:42.171Z,1.05
2022-09-27T07:21:09.103Z,2.75
2022-09-27T07:23:37.024Z,4.90
2022-09-27T07:26:08.312Z,2.50
2022-09-27T07:28:35.247Z,1.35
2022-09-27T07:31:02.798Z,5.78
2022-09-27T07:33:31.061Z,1.75
2022-09-27T07:35:57.709Z,5.93
2022-09-27T07:38:24.387Z,0.88
2022-09-27T07:40:51.118Z,2.03
2022-09-27T07:43:18.589Z,2.25
2022-09-27T07:45:46.135Z,2.70
2022-09-27T07:48:16.505Z,1.10
2022-09-27T07:50:43.328Z,1.88
2022-09-27T07:53:13.161Z,0.82
2022-09-27T07:55:40.703Z,4.55
2022-09-27T07:58:09.921Z,1.00
2022-09-27T08:00:37.627Z,0.63
2022-09-27T08:03:10.373Z,0.30
2022-09-27T08:05:37.039Z,2.33
2022-09-27T08:08:04.504Z,0.90
2022-09-27T08:10:32.752Z,3.95
2022-09-27T08:13:03.002Z,0.95
2022-09-27T08:15:33.071Z,1.17
2022-09-27T08:17:59.713Z,3.17
2022-09-27T08:20:26.697Z,0.60
2022-09-27T08:22:53.648Z,0.32
2022-09-27T08:25:22.760Z,5.07
2022-09-27T08:27:57.577Z,5.05
2022-09-27T08:30:25.314Z,3.10
2022-09-27T08:32:56.092Z,0.52
2022-09-27T08:35:22.971Z,0.13
2022-09-27T08:37:57.566Z,0.38
2022-09-27T08:40:27.597Z,1.27
2022-09-27T08:43:03.724Z,0.10
2022-09-27T08:45:41.617Z,1.00
2022-09-27T08:48:10.377Z,3.13
2022-09-27T08:50:41.882Z,0.30
2022-09-27T08:53:14.212Z,1.77
2022-09-27T08:55:48.140Z,0.38
2022-09-27T08:58:28.472Z,0.75
2022-09-27T09:00:58.920Z,1.00
2022-09-27T09:03:33.265Z,0.90
2022-09-27T09:06:14.610Z,1.40
2022-09-27T09:08:56.231Z,0.75
2022-09-27T09:11:50.380Z,1.45
2022-09-27T09:14:34.610Z,0.70
2022-09-27T09:20:25.980Z,0.60
2022-09-27T09:23:50.885Z,0.63
2022-09-27T09:26:29.488Z,1.77
2022-09-27T09:29:06.147Z,2.00
2022-09-27T09:31:41.184Z,1.02
2022-09-27T09:34:38.342Z,1.48
2022-09-27T09:37:29.300Z,1.20
2022-09-27T09:40:22.720Z,1.42
2022-09-27T09:43:00.869Z,2.28
2022-09-27T09:45:33.762Z,1.73
2022-09-27T09:48:21.420Z,1.30
2022-09-27T09:50:51.097Z,1.45
2022-09-27T09:53:48.344Z,1.45
2022-09-27T09:56:38.352Z,1.70
2022-09-27T09:59:13.808Z,0.85
2022-09-27T10:01:44.005Z,0.82
2022-09-27T10:04:23.876Z,2.20
2022-09-27T10:06:52.053Z,2.47
2022-09-27T10:09:24.840Z,2.22
2022-09-27T10:11:51.469Z,3.95
2022-09-27T10:14:21.819Z,4.03
2022-09-27T10:16:53.128Z,5.85
2022-09-27T10:19:29.535Z,2.88
2022-09-27T10:22:10.328Z,1.83
2022-09-27T10:25:03.061Z,2.83
2022-09-27T10:27:40.661Z,5.88
2022-09-27T10:30:20.596Z,2.05
2022-09-27T10:32:52.820Z,1.13
2022-09-27T10:35:36.530Z,0.70
2022-09-27T10:38:23.619Z,1.60
2022-09-27T10:40:52.910Z,2.40
2022-09-27T10:43:29.891Z,0.98
2022-09-27T10:46:08.900Z,1.30
2022-09-27T10:48:37.574Z,2.13
2022-09-27T10:51:06.980Z,0.70
2022-09-27T10:53:36.374Z,1.27
2022-09-27T10:56:07.512Z,0.60
2022-09-27T10:58:38.146Z,0.95
2022-09-27T11:01:08.725Z,0.50
2022-09-27T11:03:51.937Z,1.00
2022-09-27T11:06:20.127Z,3.05
2022-09-27T11:08:48.754Z,0.75
2022-09-27T11:11:16.375Z,1.08
2022-09-27T11:14:04.193Z,3.45
2022-09-27T11:17:11.951Z,1.08
2022-09-27T11:22:48.149Z,1.10
2022-09-27T11:25:32.158Z,2.10
2022-09-27T11:28:10.205Z,1.00
2022-09-27T11:31:07.902Z,1.80
2022-09-27T11:34:00.852Z,3.85
2022-09-27T11:36:46.053Z,1.25
2022-09-27T11:39:47.066Z,1.08
2022-09-27T11:42:33.153Z,3.53
2022-09-27T11:46:03.349Z,1.33
2022-09-27T11:51:57.740Z,3.15
2022-09-27T11:54:30.478Z,1.55
2022-09-27T11:57:21.633Z,2.75
2022-09-27T12:00:10.700Z,1.67
2022-09-27T12:02:56.662Z,3.25
2022-09-27T12:05:40.964Z,1.67
2022-09-27T12:08:32.414Z,1.45
2022-09-27T12:11:10.640Z,1.60
2022-09-27T12:13:42.804Z,1.70
2022-09-27T12:16:13.439Z,1.77
2022-09-27T12:18:47.998Z,1.45
2022-09-27T12:21:19.898Z,2.53
2022-09-27T12:23:52.929Z,1.70
2022-09-27T12:26:26.566Z,2.80
2022-09-27T12:29:14.030Z,3.80
2022-09-27T12:31:46.467Z,1.10
2022-09-27T12:34:33.501Z,0.70
2022-09-27T12:37:12.219Z,1.40
2022-09-27T12:39:59.832Z,2.20
2022-09-27T12:42:35.563Z,1.55
2022-09-27T12:45:02.223Z,1.88
2022-09-27T12:48:01.432Z,1.80
2022-09-27T12:50:30.166Z,6.13
2022-09-27T12:53:04.375Z,2.03
2022-09-27T12:55:49.793Z,1.63
2022-09-27T12:58:30.988Z,2.92
2022-09-27T13:00:59.087Z,0.75
2022-09-27T13:04:10.682Z,0.85
2022-09-27T13:06:51.748Z,1.33
2022-09-27T13:09:30.780Z,0.95
2022-09-27T13:12:11.030Z,0.85
2022-09-27T13:15:21.737Z,0.70
2022-09-27T13:17:49.998Z,3.45
2022-09-27T13:20:34.615Z,0.45
2022-09-27T13:23:20.205Z,0.60
2022-09-27T13:25:55.767Z,3.10
2022-09-27T13:28:49.157Z,4.57
2022-09-27T13:31:16.604Z,3.00
2022-09-27T13:33:53.039Z,2.08
2022-09-27T13:36:30.439Z,0.68
2022-09-27T13:39:06.329Z,0.40
2022-09-27T13:41:44.939Z,0.95
2022-09-27T13:44:23.379Z,1.77
2022-09-27T13:47:23.717Z,0.98
2022-09-27T13:49:53.268Z,0.50
2022-09-27T13:52:36.166Z,0.82
2022-09-27T13:55:25.659Z,1.67
2022-09-27T13:57:59.049Z,1.30
2022-09-27T14:00:31.458Z,0.40
2022-09-27T14:03:15.795Z,2.28
2022-09-27T14:05:50.394Z,0.38
2022-09-27T14:08:31.873Z,0.40
2022-09-27T14:11:01.232Z,0.43
2022-09-27T14:13:29.258Z,0.43
2022-09-27T14:15:58.603Z,9.82
2022-09-27T14:18:25.254Z,0.60
2022-09-27T14:20:52.924Z,0.68
2022-09-27T14:23:25.387Z,0.75
2022-09-27T14:25:54.891Z,0.55
2022-09-27T14:28:28.585Z,0.68
2022-09-27T14:31:18.168Z,0.75
2022-09-27T14:33:45.272Z,0.60
2022-09-27T14:36:51.109Z,0.90
2022-09-27T14:39:29.963Z,1.25
2022-09-27T14:41:56.947Z,0.22
2022-09-27T14:44:28.086Z,0.65
2022-09-27T14:47:10.237Z,2.15
2022-09-27T14:49:47.291Z,1.00
2022-09-27T14:52:24.198Z,1.17
2022-09-27T14:55:00.546Z,1.33
2022-09-27T14:57:32.589Z,1.40
2022-09-27T15:00:03.611Z,0.55
2022-09-27T15:02:30.279Z,4.03
2022-09-27T15:04:56.916Z,1.13
2022-09-27T15:07:23.716Z,1.63
2022-09-27T15:09:51.368Z,0.80
2022-09-27T15:12:26.208Z,2.58
2022-09-27T15:14:55.103Z,1.13
2022-09-27T15:17:22.391Z,1.23
2022-09-27T15:20:01.359Z,1.65
2022-09-27T15:22:36.843Z,1.50
2022-09-27T15:25:35.019Z,2.85
2022-09-27T15:28:12.357Z,1.40
2022-09-27T15:30:41.256Z,1.35
2022-09-27T15:33:21.320Z,1.52
2022-09-27T15:35:57.594Z,3.47
2022-09-27T15:38:33.135Z,1.88
2022-09-27T15:41:04.115Z,0.82
2022-09-27T15:43:47.024Z,0.57
2022-09-27T15:46:37.463Z,2.97
2022-09-27T15:49:27.806Z,1.27
2022-09-27T15:51:56.649Z,1.23
2022-09-27T15:54:33.251Z,2.00
2022-09-27T15:57:04.459Z,1.67
2022-09-27T15:59:34.767Z,0.95
2022-09-27T16:02:08.152Z,4.40
2022-09-27T16:04:35.114Z,0.90
2022-09-27T16:07:04.317Z,1.25
2022-09-27T16:09:31.243Z,3.60
2022-09-27T16:11:57.789Z,0.30
2022-09-27T16:14:24.401Z,0.70
2022-09-27T16:16:59.087Z,1.13
2022-09-27T16:19:25.955Z,0.20
2022-09-27T16:21:52.691Z,0.10
2022-09-27T16:24:21.462Z,1.90
2022-09-27T16:26:48.060Z,1.27
2022-09-27T16:29:15.834Z,0.98
2022-09-27T16:31:42.829Z,1.27
2022-09-27T16:34:10.587Z,0.35
2022-09-27T16:36:37.468Z,0.93
2022-09-27T16:39:07.194Z,0.50
2022-09-27T16:41:34.413Z,0.82
2022-09-27T16:44:10.757Z,0.17
2022-09-27T16:46:46.243Z,0.52
2022-09-27T16:49:31.309Z,1.45
2022-09-27T16:52:01.371Z,0.63
2022-09-27T16:54:31.420Z,1.65
2022-09-27T16:56:59.628Z,0.57
2022-09-27T16:59:26.361Z,0.60
2022-09-27T17:01:57.104Z,0.73
2022-09-27T17:04:25.160Z,1.17
2022-09-27T17:06:52.193Z,0.82
2022-09-27T17:09:18.720Z,0.57
2022-09-27T17:11:45.549Z,2.58
2022-09-27T17:14:17.058Z,1.60
2022-09-27T17:16:44.475Z,1.55
2022-09-27T17:19:11.272Z,1.80
2022-09-27T17:21:38.296Z,1.90
2022-09-27T17:24:05.576Z,2.55
2022-09-27T17:26:32.119Z,1.10
2022-09-27T17:29:02.500Z,0.47
2022-09-27T17:31:31.422Z,0.30
2022-09-27T17:33:59.959Z,0.80
2022-09-27T17:36:37.436Z,0.85
2022-09-27T17:39:04.940Z,1.65
2022-09-27T17:41:37.560Z,0.40
2022-09-27T17:44:07.188Z,0.73
2022-09-27T17:46:35.979Z,0.90
2022-09-27T17:49:21.954Z,1.77
2022-09-27T17:51:53.138Z,1.42
2022-09-27T17:54:46.016Z,1.52
2022-09-27T17:57:12.537Z,0.88
2022-09-27T17:59:39.219Z,2.22
2022-09-27T18:02:06.099Z,1.65
2022-09-27T18:04:32.652Z,4.30
2022-09-27T18:06:59.216Z,4.05
2022-09-27T18:09:25.782Z,1.50
2022-09-27T18:11:52.377Z,1.40
2022-09-27T18:14:18.998Z,1.92
2022-09-27T18:16:45.566Z,5.57
2022-09-27T18:19:16.950Z,2.45
2022-09-27T18:21:44.072Z,1.98
2022-09-27T18:24:11.569Z,5.70
2022-09-27T18:26:39.181Z,0.98
2022-09-27T18:29:12.041Z,3.85
2022-09-27T18:31:39.987Z,4.32
2022-09-27T18:34:07.229Z,1.05
2022-09-27T18:36:33.898Z,1.98
2022-09-27T18:39:05.824Z,3.10
2022-09-27T18:41:34.061Z,1.45
2022-09-27T18:44:03.368Z,0.73
2022-09-27T18:46:35.846Z,2.22
2022-09-27T18:49:08.347Z,2.88
2022-09-27T18:51:37.686Z,1.23
2022-09-27T18:54:07.035Z,1.63
2022-09-27T18:56:39.232Z,1.83
2022-09-27T18:59:10.421Z,1.33
2022-09-27T19:01:39.525Z,3.33
2022-09-27T19:04:07.615Z,2.45
2022-09-27T19:06:34.575Z,1.63
2022-09-27T19:09:02.416Z,0.80
2022-09-27T19:11:29.051Z,2.38
2022-09-27T19:13:57.853Z,0.77
2022-09-27T19:16:25.915Z,0.73
2022-09-27T19:18:53.041Z,0.52
2022-09-27T19:21:22.486Z,1.20
2022-09-27T19:23:49.852Z,3.70
2022-09-27T19:26:19.420Z,1.08
2022-09-27T19:28:47.058Z,2.45
2022-09-27T19:31:20.220Z,2.90
2022-09-27T19:33:47.429Z,2.55
2022-09-27T19:36:16.064Z,1.45
2022-09-27T19:38:42.971Z,3.95
2022-09-27T19:41:13.163Z,1.73
2022-09-27T19:43:39.777Z,1.92
2022-09-27T19:46:07.871Z,2.20
2022-09-27T19:48:36.969Z,1.23
2022-09-27T19:51:04.550Z,1.25
2022-09-27T19:53:32.436Z,4.15
2022-09-27T19:56:04.957Z,4.03
2022-09-27T19:58:33.485Z,2.72
2022-09-27T20:01:06.267Z,1.05
2022-09-27T20:03:34.105Z,4.43
2022-09-27T20:06:01.656Z,2.47
2022-09-27T20:08:29.282Z,2.50
2022-09-27T20:11:02.451Z,1.83
2022-09-27T20:13:33.244Z,1.75
2022-09-27T20:16:06.178Z,1.38
2022-09-27T20:18:33.213Z,2.85
2022-09-27T20:21:04.250Z,1.95
2022-09-27T20:23:32.574Z,2.63
2022-09-27T20:26:10.293Z,1.67
2022-09-27T20:28:41.720Z,3.50
2022-09-27T20:31:09.500Z,3.85
2022-09-27T20:33:42.124Z,1.45
2022-09-27T20:36:14.249Z,1.98
2022-09-27T20:38:42.372Z,2.15
2022-09-27T20:41:10.452Z,2.72
2022-09-27T20:43:38.360Z,2.95
2022-09-27T20:46:07.371Z,1.95
2022-09-27T20:48:34.388Z,3.17
2022-09-27T20:51:04.627Z,2.70
2022-09-27T20:53:31.954Z,1.85
2022-09-27T20:56:02.943Z,4.07
2022-09-27T20:58:31.008Z,3.22
2022-09-27T21:01:04.575Z,3.25
2022-09-27T21:03:31.297Z,4.05
2022-09-27T21:05:58.334Z,3.55
2022-09-27T21:08:25.095Z,3.95
2022-09-27T21:10:53.733Z,2.80
2022-09-27T21:13:20.600Z,3.90
2022-09-27T21:15:47.604Z,3.92
2022-09-27T21:18:14.231Z,2.63
2022-09-27T21:20:40.760Z,3.05
2022-09-27T21:23:07.286Z,4.10
2022-09-27T21:25:33.828Z,3.47
2022-09-27T21:28:04.074Z,3.72
2022-09-27T21:30:31.320Z,2.72
2022-09-27T21:32:57.883Z,2.55
2022-09-27T21:35:24.617Z,2.03
2022-09-27T21:37:51.175Z,2.80
2022-09-27T21:43:08.972Z,3.50
2022-09-27T21:45:35.516Z,4.05
2022-09-27T21:48:02.152Z,8.45
2022-09-27T21:50:28.653Z,2.97
2022-09-27T21:52:58.045Z,4.25
2022-09-27T21:55:24.766Z,3.33
2022-09-27T21:57:51.322Z,2.83
2022-09-27T22:00:17.927Z,3.03
2022-09-27T22:02:44.482Z,4.70
2022-09-27T22:05:11.015Z,3.60
2022-09-27T22:07:37.535Z,4.30
2022-09-27T22:10:04.311Z,5.30
2022-09-27T22:12:30.874Z,2.65
2022-09-27T22:14:57.403Z,5.10
2022-09-27T22:17:23.994Z,5.00
2022-09-27T22:19:50.519Z,3.72
2022-09-27T22:22:17.068Z,4.57
2022-09-27T22:24:43.623Z,6.47
2022-09-27T22:27:10.148Z,3.42
2022-09-27T22:29:36.656Z,5.68
2022-09-27T22:32:03.205Z,3.55
2022-09-27T22:34:31.007Z,4.97
2022-09-27T22:36:59.179Z,4.30
2022-09-27T22:39:25.748Z,6.13
2022-09-27T22:41:52.500Z,6.35
2022-09-27T22:44:19.039Z,4.05
2022-09-27T22:46:46.123Z,6.50
2022-09-27T22:49:13.631Z,5.78
2022-09-27T22:51:40.319Z,5.95
2022-09-27T22:54:06.859Z,8.77
2022-09-27T22:56:33.443Z,7.88
2022-09-27T22:58:59.979Z,10.68
2022-09-27T23:01:26.518Z,4.38
2022-09-27T23:03:54.207Z,4.70
2022-09-27T23:06:21.990Z,6.43
2022-09-27T23:08:49.686Z,8.52
2022-09-27T23:11:18.763Z,5.53
2022-09-27T23:13:45.751Z,7.47
2022-09-27T23:16:18.382Z,5.03
2022-09-27T23:18:46.282Z,5.68
2022-09-27T23:21:14.291Z,5.53
2022-09-27T23:23:44.527Z,7.53
2022-09-27T23:26:13.318Z,3.78
2022-09-27T23:28:40.429Z,4.50
2022-09-27T23:31:14.717Z,4.50
2022-09-27T23:33:44.257Z,3.40
2022-09-27T23:36:15.029Z,4.07
2022-09-27T23:38:42.393Z,4.88
2022-09-27T23:41:09.045Z,3.72
2022-09-27T23:43:36.128Z,4.75
2022-09-27T23:46:04.648Z,2.25
2022-09-27T23:48:31.259Z,10.63
2022-09-27T23:50:57.842Z,5.07
2022-09-27T23:53:24.440Z,7.78
2022-09-27T23:56:05.523Z,5.13
2022-09-27T23:58:36.417Z,6.63
